Vail, AZ (85641)

3:10 PM MST on February 07, 2016 (GMT -0700)
Corona de Tucson | | Change Station
CLOSE
Current Station
Personal Weather Station
Location: Vail, AZ
Elevation: 3376 ft
Nearby Weather Stations

Elev 3376 ft 31.96 °N, 110.77 °W | Updated 5 seconds ago

Mostly Cloudy
Mostly Cloudy
72.0 °F
Feels Like 73 °F
N
4.5
Wind Variable Wind from East
Gusts 9.2 mph

Today
High -- | Low -- °F
--% Chance of Precip.
Yesterday
High -- | Low -- °F
Precip. -- in
Pressure 30.07 in
Visibility 10.0 miles
Clouds Clear
Heat Index 73 °F
Dew Point 12 °F
Humidity 10%
Rainfall 0.00 in
Snow Depth Not available.
7:12 AM 6:02 PM
Waning Crescent, 1% visible
METAR KTUS 072153Z 32007KT 10SM CLR 22/M12 A3015 RMK AO2 SLP182 T02171122
Pressure 30.07 in
Visibility 10.0 miles
Clouds Clear
Heat Index 73 °F
Dew Point 12 °F
Humidity 10%
Rainfall 0.00 in
Snow Depth Not available.
7:12 AM 6:02 PM
Waning Crescent, 1% visible
METAR KTUS 072153Z 32007KT 10SM CLR 22/M12 A3015 RMK AO2 SLP182 T02171122

10-Day Weather Forecast

Almanac

Astronomy

Feb. 07, 2016 Rise Set
Actual Time
Civil Twilight
Nautical Twilight
Astronomical Twilight
Moon
Length of Visible Light
Length of Day
Tomorrow will be .
, % of the Moon is Illuminated

Today's Extremes

State Highs State Lows

Community

WunderPhotos

Upload Photos

1,891,304 photos uploaded!

WunderBlog® & News

Nearby

Air Quality

  Air Quality AQ Index Pollutant
Not available.

Snow Depth

Station Depth Elevation

Earthquake Activity

City Distance Mag. Time & Date
Minimum magnitude displayed is 2.5.

Coastal Water Temperatures

Place Temperature

Stations

Nearby Weather Stations

Station Location Temp. Windchill Dew Point Humidity Wind Precip. Elev Updated Type
                   

Watches & Warnings

There are currently no watches in effect.